createdAt,value
2019-04-01T00:00:22.740Z,8.70
2019-04-01T00:01:22.917Z,8.40
2019-04-01T00:02:23.105Z,8.60
2019-04-01T00:03:23.294Z,8.00
2019-04-01T00:04:23.562Z,8.10
2019-04-01T00:05:23.660Z,7.30
2019-04-01T00:06:23.845Z,7.90
2019-04-01T00:07:24.040Z,8.60
2019-04-01T00:08:24.223Z,7.70
2019-04-01T00:09:24.407Z,7.50
2019-04-01T00:10:24.591Z,7.90
2019-04-01T00:11:24.776Z,7.90
2019-04-01T00:12:24.955Z,7.80
2019-04-01T00:13:25.140Z,7.20
2019-04-01T00:14:25.321Z,7.70
2019-04-01T00:15:25.512Z,7.80
2019-04-01T00:16:25.692Z,7.10
2019-04-01T00:17:25.877Z,7.80
2019-04-01T00:18:26.056Z,8.00
2019-04-01T00:19:26.261Z,7.80
2019-04-01T00:20:26.443Z,7.10
2019-04-01T00:21:26.630Z,6.90
2019-04-01T00:22:26.809Z,7.40
2019-04-01T00:23:26.991Z,7.40
2019-04-01T00:24:27.195Z,7.20
2019-04-01T00:25:27.388Z,6.40
2019-04-01T00:26:27.545Z,7.00
2019-04-01T00:27:27.729Z,7.80
2019-04-01T00:28:27.923Z,7.40
2019-04-01T00:29:28.106Z,6.60
2019-04-01T00:30:28.295Z,7.10
2019-04-01T00:31:28.478Z,6.80
2019-04-01T00:32:28.664Z,6.50
2019-04-01T00:33:28.844Z,5.90
2019-04-01T00:34:29.029Z,6.30
2019-04-01T00:35:29.208Z,6.30
2019-04-01T00:36:29.389Z,6.90
2019-04-01T00:37:29.576Z,5.70
2019-04-01T00:38:29.764Z,6.40
2019-04-01T00:39:29.948Z,6.90
2019-04-01T00:40:30.131Z,5.90
2019-04-01T00:41:30.319Z,5.80
2019-04-01T00:42:30.506Z,5.80
2019-04-01T00:43:30.687Z,6.10
2019-04-01T00:44:30.869Z,5.40
2019-04-01T00:45:31.045Z,5.90
2019-04-01T00:46:31.259Z,6.40
2019-04-01T00:47:31.440Z,5.50
2019-04-01T00:48:31.619Z,5.50
2019-04-01T00:49:31.803Z,5.80
2019-04-01T00:50:32.000Z,5.60
2019-04-01T00:51:32.162Z,6.30
2019-04-01T00:52:32.352Z,5.60
2019-04-01T00:53:32.536Z,5.80
2019-04-01T00:54:32.709Z,6.00
2019-04-01T00:55:32.900Z,6.10
2019-04-01T00:56:33.080Z,5.30
2019-04-01T00:57:33.276Z,5.60
2019-04-01T00:58:33.447Z,5.30
2019-04-01T00:59:33.643Z,5.50
2019-04-01T01:00:33.812Z,5.70
2019-04-01T01:01:34.001Z,5.00
2019-04-01T01:02:34.187Z,5.10
2019-04-01T01:03:34.361Z,5.20
2019-04-01T01:04:34.561Z,5.00
2019-04-01T01:05:34.751Z,5.50
2019-04-01T01:06:34.938Z,5.20
2019-04-01T01:07:35.115Z,4.70
2019-04-01T01:08:35.296Z,4.70
2019-04-01T01:09:35.480Z,5.10
2019-04-01T01:10:35.669Z,4.60
2019-04-01T01:11:35.846Z,5.00
2019-04-01T01:12:36.029Z,5.00
2019-04-01T01:13:36.215Z,5.20
2019-04-01T01:14:36.396Z,5.10
2019-04-01T01:15:36.575Z,4.40
2019-04-01T01:16:36.769Z,5.10
2019-04-01T01:17:36.951Z,4.80
2019-04-01T01:18:37.133Z,4.90
2019-04-01T01:19:37.334Z,4.50
2019-04-01T01:20:37.507Z,4.30
2019-04-01T01:21:37.691Z,4.60
2019-04-01T01:22:37.867Z,4.40
2019-04-01T01:23:38.052Z,4.60
2019-04-01T01:24:38.226Z,4.60
2019-04-01T01:25:38.408Z,4.40
2019-04-01T01:26:38.580Z,4.90
2019-04-01T01:27:38.769Z,4.50
2019-04-01T01:28:38.957Z,4.70
2019-04-01T01:29:39.138Z,4.40
2019-04-01T01:30:39.316Z,4.40
2019-04-01T01:31:39.508Z,4.20
2019-04-01T01:32:39.677Z,4.60
2019-04-01T01:33:39.864Z,4.10
2019-04-01T01:34:40.042Z,4.00
2019-04-01T01:35:40.222Z,4.00
2019-04-01T01:36:40.406Z,4.50
2019-04-01T01:37:40.590Z,4.10
2019-04-01T01:38:40.787Z,3.90
2019-04-01T01:39:40.970Z,3.90
2019-04-01T01:40:41.150Z,4.10
2019-04-01T01:41:41.338Z,4.00
2019-04-01T01:42:41.539Z,4.80
2019-04-01T01:43:41.717Z,4.50
2019-04-01T01:44:41.896Z,4.30
2019-04-01T01:45:42.082Z,4.10
2019-04-01T01:46:42.268Z,4.20
2019-04-01T01:47:42.443Z,4.40
2019-04-01T01:48:42.630Z,4.10
2019-04-01T01:49:42.813Z,4.10
2019-04-01T01:50:42.992Z,3.70
2019-04-01T01:51:43.174Z,3.90
2019-04-01T01:52:43.354Z,4.00
2019-04-01T01:53:43.535Z,4.10
2019-04-01T01:54:43.721Z,4.00
2019-04-01T01:55:43.907Z,4.10
2019-04-01T01:56:44.093Z,3.80
2019-04-01T01:57:44.276Z,3.80
2019-04-01T01:58:44.467Z,3.60
2019-04-01T01:59:44.642Z,3.60
2019-04-01T02:00:44.820Z,4.10
2019-04-01T02:01:44.999Z,3.70
2019-04-01T02:02:45.188Z,3.60
2019-04-01T02:03:45.367Z,3.70
2019-04-01T02:04:45.545Z,4.10
2019-04-01T02:05:45.741Z,3.20
2019-04-01T02:06:45.914Z,3.80
2019-04-01T02:07:46.090Z,4.30
2019-04-01T02:08:46.272Z,3.70
2019-04-01T02:09:46.457Z,3.70
2019-04-01T02:10:46.638Z,3.60
2019-04-01T02:11:47.296Z,3.50
2019-04-01T02:12:46.976Z,3.50
2019-04-01T02:13:47.163Z,3.80
2019-04-01T02:14:47.339Z,3.70
2019-04-01T02:15:47.532Z,3.70
2019-04-01T02:16:47.709Z,4.50
2019-04-01T02:17:47.892Z,3.50
2019-04-01T02:18:48.077Z,3.90
2019-04-01T02:19:48.253Z,3.50
2019-04-01T02:20:48.445Z,3.60
2019-04-01T02:21:48.621Z,3.60
2019-04-01T02:22:48.799Z,3.40
2019-04-01T02:23:48.981Z,3.20
2019-04-01T02:24:49.180Z,3.50
2019-04-01T02:25:49.342Z,3.70
2019-04-01T02:26:49.523Z,3.70
2019-04-01T02:27:49.709Z,4.20
2019-04-01T02:28:49.894Z,3.50
2019-04-01T02:29:50.073Z,3.60
2019-04-01T02:30:50.256Z,3.00
2019-04-01T02:31:50.437Z,3.20
2019-04-01T02:32:50.613Z,4.20
2019-04-01T02:33:50.807Z,3.40
2019-04-01T02:34:51.004Z,3.70
2019-04-01T02:35:51.162Z,3.30
2019-04-01T02:36:51.346Z,3.90
2019-04-01T02:37:51.525Z,3.50
2019-04-01T02:38:51.723Z,3.40
2019-04-01T02:39:51.890Z,3.50
2019-04-01T02:40:52.083Z,3.00
2019-04-01T02:41:52.250Z,4.40
2019-04-01T02:42:52.428Z,3.50
2019-04-01T02:43:52.619Z,3.40
2019-04-01T02:44:52.798Z,3.20
2019-04-01T02:45:52.981Z,3.10
2019-04-01T02:46:53.166Z,3.40
2019-04-01T02:47:53.346Z,3.80
2019-04-01T02:48:53.532Z,3.40
2019-04-01T02:49:53.705Z,3.50
2019-04-01T02:50:53.883Z,3.30
2019-04-01T02:51:54.066Z,3.40
2019-04-01T02:52:54.247Z,3.30
2019-04-01T02:53:54.515Z,3.10
2019-04-01T02:54:54.610Z,3.60
2019-04-01T02:55:54.803Z,3.40
2019-04-01T02:56:54.970Z,3.60
2019-04-01T02:57:55.156Z,2.80
2019-04-01T02:58:55.333Z,3.30
2019-04-01T02:59:55.518Z,3.80
2019-04-01T03:00:55.698Z,3.20
2019-04-01T03:01:55.888Z,3.60
2019-04-01T03:02:56.063Z,3.10
2019-04-01T03:03:56.247Z,3.60
2019-04-01T03:04:56.428Z,3.20
2019-04-01T03:05:56.607Z,3.20
2019-04-01T03:06:56.801Z,3.20
2019-04-01T03:07:56.983Z,3.20
2019-04-01T03:08:57.166Z,3.30
2019-04-01T03:09:57.350Z,3.40
2019-04-01T03:10:57.533Z,2.90
2019-04-01T03:11:57.707Z,3.50
2019-04-01T03:12:57.886Z,3.90
2019-04-01T03:13:58.068Z,3.70
2019-04-01T03:14:58.247Z,3.60
2019-04-01T03:15:58.453Z,3.50
2019-04-01T03:16:58.622Z,3.10
2019-04-01T03:17:58.808Z,3.30
2019-04-01T03:18:58.989Z,3.50
2019-04-01T03:19:59.174Z,3.00
2019-04-01T03:20:59.349Z,3.30
2019-04-01T03:21:59.531Z,3.60
2019-04-01T03:22:59.709Z,3.60
2019-04-01T03:23:59.894Z,3.50
2019-04-01T03:25:00.073Z,3.30
2019-04-01T03:26:00.246Z,3.60
2019-04-01T03:27:00.427Z,3.70
2019-04-01T03:28:00.624Z,3.50
2019-04-01T03:29:00.792Z,4.00
2019-04-01T03:30:00.993Z,3.50
2019-04-01T03:31:01.177Z,3.60
2019-04-01T03:32:01.346Z,3.10
2019-04-01T03:33:01.519Z,3.50
2019-04-01T03:34:01.710Z,3.20
2019-04-01T03:35:02.297Z,3.30
2019-04-01T03:36:02.068Z,3.00
2019-04-01T03:37:02.333Z,3.70
2019-04-01T03:38:02.427Z,3.60
2019-04-01T03:39:02.612Z,3.20
2019-04-01T03:40:02.795Z,3.30
2019-04-01T03:41:02.970Z,3.30
2019-04-01T03:42:03.149Z,3.30
2019-04-01T03:43:03.325Z,3.60
2019-04-01T03:44:03.505Z,3.10
2019-04-01T03:45:03.690Z,3.40
2019-04-01T03:46:03.867Z,3.60
2019-04-01T03:47:04.052Z,3.40
2019-04-01T03:48:04.226Z,3.40
2019-04-01T03:49:04.424Z,3.30
2019-04-01T03:50:04.594Z,3.80
2019-04-01T03:51:04.772Z,3.30
2019-04-01T03:52:09.835Z,3.40
2019-04-01T03:53:05.120Z,3.10
2019-04-01T03:54:05.301Z,3.40
2019-04-01T03:55:05.485Z,3.60
2019-04-01T03:56:05.671Z,3.70
2019-04-01T03:57:05.850Z,3.60
2019-04-01T03:58:06.040Z,3.40
2019-04-01T03:59:06.208Z,3.60
2019-04-01T04:00:06.410Z,3.00
2019-04-01T04:01:06.582Z,3.50
2019-04-01T04:02:06.766Z,3.30
2019-04-01T04:03:06.957Z,3.30
2019-04-01T04:04:07.141Z,3.60
2019-04-01T04:05:07.322Z,3.70
2019-04-01T04:06:07.502Z,3.80
2019-04-01T04:07:07.687Z,3.50
2019-04-01T04:08:07.863Z,3.40
2019-04-01T04:09:08.048Z,3.30
2019-04-01T04:10:08.227Z,3.20
2019-04-01T04:11:08.406Z,3.10
2019-04-01T04:12:08.593Z,3.00
2019-04-01T04:13:08.769Z,3.10
2019-04-01T04:14:08.952Z,3.10
2019-04-01T04:15:09.134Z,3.30
2019-04-01T04:16:09.321Z,3.00
2019-04-01T04:17:09.528Z,3.50
2019-04-01T04:18:09.678Z,3.60
2019-04-01T04:19:09.870Z,3.40
2019-04-01T04:20:10.053Z,3.30
2019-04-01T04:21:10.233Z,2.70
2019-04-01T04:22:10.416Z,3.10
2019-04-01T04:23:10.601Z,2.70
2019-04-01T04:24:10.776Z,3.40
2019-04-01T04:25:10.955Z,3.40
2019-04-01T04:26:11.141Z,3.30
2019-04-01T04:27:11.737Z,3.40
2019-04-01T04:28:11.499Z,3.30
2019-04-01T04:29:11.679Z,2.90
2019-04-01T04:30:11.857Z,3.00
2019-04-01T04:31:12.052Z,3.80
2019-04-01T04:32:12.217Z,3.10
2019-04-01T04:33:12.411Z,3.30
2019-04-01T04:34:12.587Z,3.20
2019-04-01T04:35:12.771Z,3.20
2019-04-01T04:36:12.949Z,3.30
2019-04-01T04:37:13.130Z,3.60
2019-04-01T04:38:13.316Z,3.10
2019-04-01T04:39:13.505Z,3.20
2019-04-01T04:40:13.685Z,3.30
2019-04-01T04:41:13.866Z,3.30
2019-04-01T04:42:14.047Z,3.20
2019-04-01T04:43:14.254Z,3.30
2019-04-01T04:44:14.412Z,3.80
2019-04-01T04:45:14.591Z,3.20
2019-04-01T04:46:14.780Z,3.10
2019-04-01T04:47:14.957Z,3.00
2019-04-01T04:48:15.149Z,3.10
2019-04-01T04:49:15.327Z,2.80
2019-04-01T04:50:15.514Z,2.80
2019-04-01T04:51:15.684Z,2.80
2019-04-01T04:52:15.869Z,3.00
2019-04-01T04:53:16.050Z,3.20
2019-04-01T04:54:16.243Z,3.10
2019-04-01T04:55:16.408Z,3.10
2019-04-01T04:56:16.592Z,3.10
2019-04-01T04:57:20.163Z,2.80
2019-04-01T04:58:16.965Z,2.90
2019-04-01T04:59:17.142Z,3.30
2019-04-01T05:00:17.335Z,3.00
2019-04-01T05:01:17.503Z,3.60
2019-04-01T05:02:17.685Z,2.90
2019-04-01T05:03:17.858Z,2.80
2019-04-01T05:04:18.051Z,3.20
2019-04-01T05:05:18.231Z,3.40
2019-04-01T05:06:18.407Z,2.80
2019-04-01T05:07:18.589Z,2.70
2019-04-01T05:08:18.770Z,3.00
2019-04-01T05:09:18.957Z,3.20
2019-04-01T05:10:19.136Z,2.80
2019-04-01T05:11:19.315Z,3.10
2019-04-01T05:12:19.493Z,2.70
2019-04-01T05:13:19.678Z,3.10
2019-04-01T05:14:19.857Z,3.00
2019-04-01T05:15:20.034Z,2.70
2019-04-01T05:16:20.215Z,3.40
2019-04-01T05:17:20.396Z,3.20
2019-04-01T05:18:20.580Z,3.10
2019-04-01T05:19:20.754Z,2.90
2019-04-01T05:20:20.937Z,2.70
2019-04-01T05:21:21.125Z,3.10
2019-04-01T05:22:21.308Z,2.80
2019-04-01T05:23:21.481Z,2.90
2019-04-01T05:24:21.664Z,3.10
2019-04-01T05:25:21.845Z,2.90
2019-04-01T05:26:22.027Z,3.10
2019-04-01T05:27:22.206Z,3.00
2019-04-01T05:28:22.392Z,2.90
2019-04-01T05:29:22.571Z,3.00
2019-04-01T05:30:22.752Z,3.10
2019-04-01T05:31:22.931Z,2.50
2019-04-01T05:32:23.110Z,2.80
2019-04-01T05:33:23.342Z,3.00
2019-04-01T05:34:23.488Z,2.90
2019-04-01T05:35:23.666Z,2.60
2019-04-01T05:36:23.854Z,3.00
2019-04-01T05:37:24.028Z,3.20
2019-04-01T05:38:24.210Z,2.70
2019-04-01T05:39:24.400Z,2.80
2019-04-01T05:40:24.589Z,3.00
2019-04-01T05:41:24.766Z,2.40
2019-04-01T05:42:24.949Z,3.10
2019-04-01T05:43:25.131Z,2.90
2019-04-01T05:44:25.312Z,2.80
2019-04-01T05:45:25.507Z,2.70
2019-04-01T05:46:25.687Z,3.00
2019-04-01T05:47:25.867Z,2.80
2019-04-01T05:48:26.051Z,3.10
2019-04-01T05:49:26.234Z,2.80
2019-04-01T05:50:26.416Z,3.30
2019-04-01T05:51:26.595Z,2.90
2019-04-01T05:52:26.784Z,2.90
2019-04-01T05:53:26.970Z,2.90
2019-04-01T05:54:27.151Z,2.80
2019-04-01T05:55:27.335Z,2.60
2019-04-01T05:56:27.524Z,2.80
2019-04-01T05:57:27.708Z,2.90
2019-04-01T05:58:27.894Z,3.10
2019-04-01T05:59:28.077Z,3.10
2019-04-01T06:00:28.258Z,3.30
2019-04-01T06:01:28.451Z,3.20
2019-04-01T06:02:28.637Z,3.40
2019-04-01T06:03:28.826Z,2.90
2019-04-01T06:04:29.012Z,2.70
2019-04-01T06:05:29.192Z,2.90
2019-04-01T06:06:29.404Z,2.70
2019-04-01T06:07:29.573Z,3.00
2019-04-01T06:08:29.764Z,3.00
2019-04-01T06:09:29.947Z,2.90
2019-04-01T06:10:30.139Z,3.00
2019-04-01T06:11:30.334Z,3.00
2019-04-01T06:12:30.529Z,3.40
2019-04-01T06:13:30.716Z,3.10
2019-04-01T06:14:30.906Z,3.10
2019-04-01T06:15:31.086Z,3.00
2019-04-01T06:16:31.292Z,3.20
2019-04-01T06:17:31.487Z,3.00
2019-04-01T06:18:31.693Z,2.90
2019-04-01T06:19:31.866Z,2.90
2019-04-01T06:20:32.055Z,3.10
2019-04-01T06:21:32.250Z,3.10
2019-04-01T06:22:32.436Z,3.30
2019-04-01T06:23:32.627Z,3.10
2019-04-01T06:24:32.820Z,2.50
2019-04-01T06:25:33.022Z,3.10
2019-04-01T06:26:33.198Z,2.70
2019-04-01T06:27:33.401Z,2.60
2019-04-01T06:28:33.594Z,3.10
2019-04-01T06:29:33.777Z,3.00
2019-04-01T06:30:33.968Z,3.10
2019-04-01T06:31:34.156Z,3.20
2019-04-01T06:32:34.354Z,2.80
2019-04-01T06:33:34.546Z,2.80
2019-04-01T06:34:34.740Z,2.90
2019-04-01T06:35:34.936Z,2.70
2019-04-01T06:36:38.522Z,3.00
2019-04-01T06:37:35.319Z,3.20
2019-04-01T06:38:35.527Z,3.30
2019-04-01T06:39:35.717Z,2.90
2019-04-01T06:40:35.911Z,3.00
2019-04-01T06:41:36.102Z,3.00
2019-04-01T06:42:36.300Z,2.90
2019-04-01T06:43:36.493Z,3.30
2019-04-01T06:44:36.686Z,2.40
2019-04-01T06:45:36.884Z,3.10
2019-04-01T06:46:37.077Z,3.20
2019-04-01T06:47:37.274Z,3.10
2019-04-01T06:48:37.470Z,2.90
2019-04-01T06:49:37.662Z,3.00
2019-04-01T06:50:38.718Z,2.70
2019-04-01T06:51:38.063Z,2.70
2019-04-01T06:52:38.262Z,2.60
2019-04-01T06:53:38.458Z,2.90
2019-04-01T06:54:38.654Z,3.20
2019-04-01T06:55:38.849Z,3.10
2019-04-01T06:56:39.046Z,2.70
2019-04-01T06:57:39.247Z,2.60
2019-04-01T06:58:39.435Z,2.50
2019-04-01T06:59:40.214Z,3.00
2019-04-01T07:00:39.852Z,3.00
2019-04-01T07:01:40.046Z,3.00
2019-04-01T07:02:40.248Z,2.70
2019-04-01T07:03:40.445Z,3.00
2019-04-01T07:04:40.643Z,3.50
2019-04-01T07:05:40.852Z,2.90
2019-04-01T07:06:41.048Z,2.80
2019-04-01T07:07:41.744Z,2.90
2019-04-01T07:08:41.472Z,2.90
2019-04-01T07:09:41.673Z,3.10
2019-04-01T07:10:41.868Z,2.90
2019-04-01T07:11:42.175Z,2.60
2019-04-01T07:12:42.280Z,2.80
2019-04-01T07:13:42.475Z,3.40
2019-04-01T07:14:42.665Z,3.30
2019-04-01T07:15:42.874Z,2.90
2019-04-01T07:16:43.072Z,3.10
2019-04-01T07:17:43.271Z,3.10
2019-04-01T07:18:43.458Z,2.80
2019-04-01T07:19:43.670Z,2.80
2019-04-01T07:20:43.875Z,2.90
2019-04-01T07:21:44.065Z,3.10
2019-04-01T07:22:44.261Z,3.40
2019-04-01T07:23:44.462Z,3.00
2019-04-01T07:24:44.660Z,3.10
2019-04-01T07:25:44.858Z,3.00
2019-04-01T07:26:45.063Z,2.50
2019-04-01T07:27:45.255Z,3.10
2019-04-01T07:28:45.453Z,3.20
2019-04-01T07:29:45.657Z,3.50
2019-04-01T07:30:45.854Z,4.80
2019-04-01T07:31:46.046Z,4.20
2019-04-01T07:32:46.247Z,4.70
2019-04-01T07:33:46.450Z,4.30
2019-04-01T07:34:46.650Z,3.70
2019-04-01T07:35:46.959Z,3.30
2019-04-01T07:36:47.049Z,4.00
2019-04-01T07:37:47.274Z,3.00
2019-04-01T07:38:47.462Z,4.10
2019-04-01T07:39:47.657Z,3.60
2019-04-01T07:43:30.761Z,3.10
2019-04-01T07:44:30.955Z,3.10
2019-04-01T07:45:31.154Z,3.00
2019-04-01T07:46:31.351Z,3.30
2019-04-01T07:47:31.547Z,3.10
2019-04-01T07:48:31.757Z,2.80
2019-04-01T07:49:31.962Z,3.10
2019-04-01T07:50:32.158Z,3.10
2019-04-01T07:51:32.363Z,3.10
2019-04-01T07:52:32.566Z,3.00
2019-04-01T07:53:32.765Z,2.80
2019-04-01T07:54:32.983Z,3.30
2019-04-01T07:55:33.157Z,3.30
2019-04-01T07:56:33.351Z,3.00
2019-04-01T07:57:33.559Z,3.10
2019-04-01T07:58:33.751Z,3.30
2019-04-01T07:59:33.962Z,3.00
2019-04-01T08:00:34.161Z,3.30
2019-04-01T08:01:34.355Z,3.00
2019-04-01T08:02:34.553Z,2.80
2019-04-01T08:03:34.772Z,3.00
2019-04-01T08:04:34.971Z,3.10
2019-04-01T08:05:35.170Z,2.60
2019-04-01T08:06:35.370Z,3.20
2019-04-01T08:07:35.567Z,3.00
2019-04-01T08:08:35.765Z,3.40
2019-04-01T08:09:35.961Z,2.90
2019-04-01T08:10:36.160Z,2.70
2019-04-01T08:11:36.353Z,2.90
2019-04-01T08:12:36.556Z,2.80
2019-04-01T08:13:36.751Z,3.00
2019-04-01T08:14:36.956Z,3.10
2019-04-01T08:15:37.163Z,3.00
2019-04-01T08:16:37.359Z,2.90
2019-04-01T08:17:37.567Z,3.00
2019-04-01T08:18:37.766Z,2.60
2019-04-01T08:19:37.963Z,2.90
2019-04-01T08:20:38.164Z,3.20
2019-04-01T08:21:38.360Z,2.90
2019-04-01T08:22:38.571Z,2.80
2019-04-01T08:23:38.764Z,2.80
2019-04-01T08:24:38.967Z,2.70
2019-04-01T08:25:39.167Z,2.80
2019-04-01T08:26:39.369Z,3.10
2019-04-01T08:27:39.568Z,3.00
2019-04-01T08:28:39.763Z,2.70
2019-04-01T08:29:39.958Z,2.80
2019-04-01T08:30:40.160Z,2.80
2019-04-01T08:31:40.361Z,2.80
2019-04-01T08:32:40.560Z,2.80
2019-04-01T08:33:40.762Z,2.60
2019-04-01T08:34:40.976Z,2.50
2019-04-01T08:35:41.210Z,3.10
2019-04-01T08:36:41.381Z,3.00
2019-04-01T08:37:41.579Z,2.80
2019-04-01T08:38:41.769Z,3.00
2019-04-01T08:39:41.972Z,2.70
2019-04-01T08:40:42.176Z,2.80
2019-04-01T08:41:42.370Z,2.80
2019-04-01T08:42:42.574Z,2.70
2019-04-01T08:43:42.769Z,3.00
2019-04-01T08:44:42.971Z,2.90
2019-04-01T08:45:43.189Z,2.90
2019-04-01T08:46:43.367Z,2.80
2019-04-01T08:47:43.569Z,2.80
2019-04-01T08:48:43.788Z,2.70
2019-04-01T08:49:43.986Z,3.40
2019-04-01T08:50:44.161Z,3.30
2019-04-01T08:51:44.362Z,3.00
2019-04-01T08:52:44.565Z,3.00
2019-04-01T08:53:44.757Z,3.00
2019-04-01T08:54:44.971Z,3.10
2019-04-01T08:55:45.177Z,3.50
2019-04-01T08:56:45.370Z,3.10
2019-04-01T08:57:45.566Z,3.60
2019-04-01T08:58:45.770Z,3.10
2019-04-01T08:59:45.968Z,3.10
2019-04-01T09:00:46.180Z,3.10
2019-04-01T09:01:46.367Z,2.80
2019-04-01T09:02:46.564Z,3.20
2019-04-01T09:03:46.763Z,3.30
2019-04-01T09:04:46.972Z,3.60
2019-04-01T09:05:47.187Z,3.60
2019-04-01T09:06:47.376Z,3.30
2019-04-01T09:07:47.566Z,3.50
2019-04-01T09:08:47.761Z,3.20
2019-04-01T09:09:47.974Z,3.80
2019-04-01T09:10:48.168Z,4.00
2019-04-01T09:11:48.364Z,3.80
2019-04-01T09:12:48.569Z,3.90
2019-04-01T09:13:48.761Z,3.70
2019-04-01T09:14:48.964Z,3.60
2019-04-01T09:15:49.172Z,3.50
2019-04-01T09:16:49.368Z,3.70
2019-04-01T09:17:49.564Z,3.40
2019-04-01T09:18:49.754Z,3.60
2019-04-01T09:19:49.956Z,3.60
2019-04-01T09:20:50.154Z,3.70
2019-04-01T09:21:50.354Z,3.40
2019-04-01T09:22:50.561Z,3.50
2019-04-01T09:23:52.262Z,3.70
2019-04-01T09:24:50.969Z,3.80
2019-04-01T09:25:51.163Z,3.50
2019-04-01T09:26:51.366Z,3.60
2019-04-01T09:27:51.568Z,3.60
2019-04-01T09:28:51.772Z,3.60
2019-04-01T09:29:51.961Z,3.30
2019-04-01T09:30:52.157Z,3.60
2019-04-01T09:31:52.353Z,3.30
2019-04-01T09:32:52.562Z,3.30
2019-04-01T09:33:52.755Z,3.60
2019-04-01T09:34:52.951Z,3.50
2019-04-01T09:35:53.149Z,4.10
2019-04-01T09:36:53.352Z,3.80
2019-04-01T09:37:53.551Z,3.50
2019-04-01T09:38:53.758Z,3.80
2019-04-01T09:39:53.963Z,3.90
2019-04-01T09:40:54.165Z,3.90
2019-04-01T09:41:54.370Z,3.70
2019-04-01T09:42:54.569Z,3.60
2019-04-01T09:43:54.763Z,4.00
2019-04-01T09:44:54.977Z,3.90
2019-04-01T09:45:55.180Z,3.80
2019-04-01T09:46:55.382Z,3.70
2019-04-01T09:47:55.586Z,3.80
2019-04-01T09:48:55.782Z,3.90
2019-04-01T09:49:55.977Z,3.80
2019-04-01T09:50:56.183Z,3.90
2019-04-01T09:51:56.387Z,3.70
2019-04-01T09:52:56.583Z,4.20
2019-04-01T09:53:56.811Z,4.00
2019-04-01T09:54:56.983Z,3.80
2019-04-01T09:55:57.184Z,4.30
2019-04-01T09:56:57.384Z,4.50
2019-04-01T09:57:57.595Z,4.00
2019-04-01T09:58:57.790Z,3.60
2019-04-01T09:59:57.989Z,4.10
2019-04-01T10:00:58.190Z,4.30
2019-04-01T10:01:58.396Z,3.80
2019-04-01T10:02:58.610Z,3.70
2019-04-01T10:03:58.805Z,4.40
2019-04-01T10:04:58.994Z,3.80
2019-04-01T10:05:59.199Z,4.20
2019-04-01T10:06:59.445Z,4.30
2019-04-01T10:07:59.599Z,3.70
2019-04-01T10:08:59.802Z,3.80
2019-04-01T10:10:00.007Z,4.00
2019-04-01T10:11:00.205Z,4.10
2019-04-01T10:12:01.253Z,3.70
2019-04-01T10:13:00.590Z,4.00
2019-04-01T10:14:00.785Z,3.70
2019-04-01T10:15:00.988Z,4.10
2019-04-01T10:16:01.189Z,4.10
2019-04-01T10:17:01.401Z,4.10
2019-04-01T10:18:01.593Z,4.30
2019-04-01T10:19:01.795Z,3.90
2019-04-01T10:20:01.997Z,4.20
2019-04-01T10:21:02.198Z,4.50
2019-04-01T10:22:02.398Z,4.20
2019-04-01T10:23:02.600Z,4.20
2019-04-01T10:24:02.806Z,4.10
2019-04-01T10:25:02.999Z,4.50
2019-04-01T10:26:03.201Z,4.40
2019-04-01T10:27:03.400Z,4.40
2019-04-01T10:28:03.595Z,4.90
2019-04-01T10:29:03.795Z,4.10
2019-04-01T10:30:03.996Z,4.50
2019-04-01T10:31:04.196Z,4.30
2019-04-01T10:32:04.399Z,4.70
2019-04-01T10:33:04.604Z,4.00
2019-04-01T10:34:04.808Z,4.10
2019-04-01T10:35:05.011Z,4.00
2019-04-01T10:36:05.203Z,4.60
2019-04-01T10:37:05.408Z,4.30
2019-04-01T10:38:05.617Z,4.30
2019-04-01T10:39:05.818Z,4.30
2019-04-01T10:40:06.028Z,4.40
2019-04-01T10:41:06.263Z,4.20
2019-04-01T10:42:06.414Z,3.80
2019-04-01T10:43:06.615Z,3.90
2019-04-01T10:44:06.825Z,4.20
2019-04-01T10:45:07.017Z,3.90
2019-04-01T10:46:07.212Z,4.40
2019-04-01T10:47:07.499Z,4.00
2019-04-01T10:48:07.659Z,4.50
2019-04-01T10:49:07.864Z,4.80
2019-04-01T10:50:08.063Z,4.60
2019-04-01T10:51:08.257Z,4.70
2019-04-01T10:52:08.502Z,4.90
2019-04-01T10:53:08.723Z,5.30
2019-04-01T10:54:08.862Z,4.90
2019-04-01T10:55:09.078Z,4.80
2019-04-01T10:56:09.232Z,4.80
2019-04-01T10:57:09.485Z,4.90
2019-04-01T10:58:09.672Z,5.00
2019-04-01T10:59:09.925Z,5.00
2019-04-01T11:00:10.095Z,4.80
2019-04-01T11:01:10.268Z,5.10
2019-04-01T11:02:10.471Z,5.10
2019-04-01T11:03:10.631Z,4.80
2019-04-01T11:04:10.901Z,4.70
2019-04-01T11:05:11.059Z,4.80
2019-04-01T11:06:11.273Z,5.30
2019-04-01T11:07:11.509Z,5.00
2019-04-01T11:08:11.661Z,5.10
2019-04-01T11:09:11.876Z,5.00
2019-04-01T11:10:12.077Z,4.30
2019-04-01T11:11:12.210Z,5.10
2019-04-01T11:12:12.419Z,4.70
2019-04-01T11:13:12.608Z,5.20
2019-04-01T11:14:12.805Z,4.60
2019-04-01T11:15:15.550Z,5.00
2019-04-01T11:16:13.212Z,4.80
2019-04-01T11:17:13.432Z,5.20
2019-04-01T11:18:13.620Z,5.20
2019-04-01T11:19:13.817Z,5.60
2019-04-01T11:20:14.012Z,5.40
2019-04-01T11:21:14.211Z,5.20
2019-04-01T11:22:14.409Z,5.20
2019-04-01T11:23:14.609Z,4.80
2019-04-01T11:24:14.819Z,5.10
2019-04-01T11:25:15.019Z,5.30
2019-04-01T11:26:15.214Z,5.20
2019-04-01T11:27:15.425Z,5.40
2019-04-01T11:28:15.605Z,5.20
2019-04-01T11:29:15.824Z,5.20
2019-04-01T11:30:16.023Z,5.60
2019-04-01T11:31:16.247Z,5.70
2019-04-01T11:32:16.426Z,5.90
2019-04-01T11:33:16.628Z,5.00
2019-04-01T11:34:16.835Z,5.70
2019-04-01T11:35:17.040Z,5.30
2019-04-01T11:36:17.241Z,5.50
2019-04-01T11:37:17.445Z,5.70
2019-04-01T11:38:17.707Z,5.30
2019-04-01T11:39:17.821Z,5.30
2019-04-01T11:40:18.035Z,5.20
2019-04-01T11:41:18.281Z,5.10
2019-04-01T11:42:18.426Z,5.40
2019-04-01T11:43:18.688Z,5.40
2019-04-01T11:44:18.824Z,5.50
2019-04-01T11:45:19.064Z,5.80
2019-04-01T11:46:19.219Z,5.70
2019-04-01T11:47:22.090Z,5.40
2019-04-01T11:48:19.691Z,5.60
2019-04-01T11:49:19.821Z,5.00
2019-04-01T11:50:20.005Z,6.00
2019-04-01T11:51:31.967Z,5.60
2019-04-01T11:52:20.437Z,5.70
2019-04-01T11:53:20.602Z,5.70
2019-04-01T11:54:20.802Z,5.30
2019-04-01T11:55:20.996Z,6.00
2019-04-01T11:56:21.191Z,5.80
2019-04-01T11:57:21.387Z,6.00
2019-04-01T11:58:21.587Z,6.00
2019-04-01T11:59:21.788Z,6.10
2019-04-01T12:00:21.987Z,6.00
2019-04-01T12:01:22.169Z,5.80
2019-04-01T12:02:22.380Z,5.90
2019-04-01T12:03:22.562Z,6.90
2019-04-01T12:04:22.753Z,6.30
2019-04-01T12:05:22.960Z,6.70
2019-04-01T12:06:23.146Z,6.40
2019-04-01T12:07:23.338Z,6.50
2019-04-01T12:08:23.539Z,6.70
2019-04-01T12:09:23.731Z,6.60
2019-04-01T12:10:23.930Z,6.70
2019-04-01T12:11:24.127Z,6.60
2019-04-01T12:12:24.598Z,6.80
2019-04-01T12:13:24.509Z,7.30
2019-04-01T12:14:24.719Z,6.80
2019-04-01T12:15:24.908Z,7.60
2019-04-01T12:16:25.095Z,7.20
2019-04-01T12:17:25.286Z,7.60
2019-04-01T12:18:25.475Z,7.30
2019-04-01T12:19:25.665Z,7.40
2019-04-01T12:20:25.889Z,6.90
2019-04-01T12:21:26.049Z,6.50
2019-04-01T12:22:26.246Z,7.30
2019-04-01T12:23:26.435Z,6.70
2019-04-01T12:24:26.636Z,6.20
2019-04-01T12:25:26.834Z,6.80
2019-04-01T12:26:27.023Z,6.30
2019-04-01T12:27:27.217Z,7.00
2019-04-01T12:28:27.415Z,6.90
2019-04-01T12:29:27.603Z,6.50
2019-04-01T12:30:27.798Z,6.80
2019-04-01T12:31:27.991Z,7.20
2019-04-01T12:32:28.180Z,7.40
2019-04-01T12:33:28.368Z,7.30
2019-04-01T12:34:28.557Z,7.30
2019-04-01T12:35:28.741Z,7.00
2019-04-01T12:36:28.930Z,6.70
2019-04-01T12:37:30.146Z,7.40
2019-04-01T12:38:29.311Z,7.00
2019-04-01T12:39:29.495Z,6.90
2019-04-01T12:40:29.689Z,6.90
2019-04-01T12:41:29.884Z,7.20
2019-04-01T12:42:30.069Z,7.70
2019-04-01T12:43:30.250Z,7.20
2019-04-01T12:44:30.476Z,7.70
2019-04-01T12:45:30.665Z,6.50
2019-04-01T12:46:30.852Z,7.00
2019-04-01T12:47:31.048Z,7.30
2019-04-01T12:48:31.245Z,7.60
2019-04-01T12:49:31.435Z,6.70
2019-04-01T12:50:31.618Z,7.50
2019-04-01T12:51:31.808Z,6.30
2019-04-01T12:52:31.999Z,7.30
2019-04-01T12:53:32.193Z,7.00
2019-04-01T12:54:32.393Z,6.20
2019-04-01T12:55:32.588Z,7.30
2019-04-01T12:56:32.774Z,7.10
2019-04-01T12:57:32.965Z,6.60
2019-04-01T12:58:33.166Z,7.80
2019-04-01T12:59:33.350Z,7.20
2019-04-01T13:00:33.555Z,6.90
2019-04-01T13:01:33.735Z,7.00
2019-04-01T13:02:33.924Z,7.10
2019-04-01T13:03:34.112Z,7.10
2019-04-01T13:04:36.093Z,7.70
2019-04-01T13:05:34.496Z,7.00
2019-04-01T13:06:34.681Z,7.40
2019-04-01T13:07:34.875Z,7.10
2019-04-01T13:08:35.057Z,7.50
2019-04-01T13:09:35.247Z,7.40
2019-04-01T13:10:35.437Z,7.00
2019-04-01T13:11:35.636Z,7.60
2019-04-01T13:12:35.828Z,7.10
2019-04-01T13:13:36.019Z,7.10
2019-04-01T13:14:36.216Z,7.00
2019-04-01T13:15:36.403Z,6.90
2019-04-01T13:16:36.698Z,6.70
2019-04-01T13:17:36.806Z,6.80
2019-04-01T13:18:38.291Z,6.70
2019-04-01T13:19:37.201Z,7.60
2019-04-01T13:20:38.403Z,7.40
2019-04-01T13:21:37.567Z,7.20
2019-04-01T13:22:38.174Z,6.60
2019-04-01T13:23:37.954Z,6.70